createdAt,value
2023-05-08T00:00:05.103Z,29.79
2023-05-08T00:02:32.357Z,29.91
2023-05-08T00:04:59.637Z,29.81
2023-05-08T00:07:26.739Z,29.59
2023-05-08T00:09:53.761Z,29.55
2023-05-08T00:12:20.913Z,29.63
2023-05-08T00:14:47.958Z,29.76
2023-05-08T00:17:15.134Z,29.66
2023-05-08T00:19:42.109Z,29.57
2023-05-08T00:22:09.315Z,29.71
2023-05-08T00:24:36.903Z,29.60
2023-05-08T00:27:03.963Z,29.72
2023-05-08T00:29:31.023Z,29.63
2023-05-08T00:31:58.034Z,29.54
2023-05-08T00:34:25.117Z,29.71
2023-05-08T00:36:52.635Z,29.71
2023-05-08T00:39:19.631Z,29.73
2023-05-08T00:41:46.825Z,29.68
2023-05-08T00:44:14.352Z,29.74
2023-05-08T00:46:42.253Z,29.64
2023-05-08T00:49:14.686Z,29.82
2023-05-08T00:51:42.567Z,29.63
2023-05-08T00:54:09.766Z,29.76
2023-05-08T00:56:37.709Z,29.77
2023-05-08T00:59:05.553Z,29.73
2023-05-08T01:01:32.843Z,29.70
2023-05-08T01:03:59.913Z,29.73
2023-05-08T01:06:27.090Z,29.83
2023-05-08T01:08:54.141Z,29.80
2023-05-08T01:11:29.764Z,29.83
2023-05-08T01:14:19.063Z,29.91
2023-05-08T01:17:09.534Z,29.88
2023-05-08T01:20:00.909Z,29.83
2023-05-08T01:22:58.901Z,29.93
2023-05-08T01:25:26.085Z,30.02
2023-05-08T01:28:12.850Z,30.01
2023-05-08T01:31:26.443Z,30.03
2023-05-08T01:34:02.200Z,30.20
2023-05-08T01:36:58.208Z,30.19
2023-05-08T01:39:31.368Z,30.27
2023-05-08T01:42:07.479Z,30.27
2023-05-08T01:45:01.932Z,30.20
2023-05-08T01:47:30.425Z,30.24
2023-05-08T01:50:10.412Z,30.20
2023-05-08T01:52:46.993Z,30.42
2023-05-08T01:55:18.155Z,30.47
2023-05-08T01:57:48.433Z,30.45
2023-05-08T02:00:16.863Z,30.44
2023-05-08T02:02:44.001Z,30.49
2023-05-08T02:05:11.175Z,30.39
2023-05-08T02:07:38.394Z,30.36
2023-05-08T02:10:10.803Z,30.46
2023-05-08T02:12:38.354Z,30.52
2023-05-08T02:15:06.655Z,30.49
2023-05-08T02:17:33.834Z,30.78
2023-05-08T02:20:01.075Z,30.63
2023-05-08T02:22:28.321Z,30.56
2023-05-08T02:24:55.858Z,30.49
2023-05-08T02:27:23.923Z,30.68
2023-05-08T02:29:51.292Z,30.67
2023-05-08T02:32:19.797Z,30.65
2023-05-08T02:35:02.383Z,30.57
2023-05-08T02:37:30.719Z,30.85
2023-05-08T02:39:57.742Z,30.65
2023-05-08T02:42:25.017Z,30.62
2023-05-08T02:44:52.124Z,30.64
2023-05-08T02:47:32.064Z,30.82
2023-05-08T02:50:14.414Z,30.71
2023-05-08T02:52:49.956Z,30.63
2023-05-08T02:55:17.346Z,30.59
2023-05-08T02:57:48.201Z,30.59
2023-05-08T03:00:21.222Z,30.57
2023-05-08T03:02:54.975Z,30.72
2023-05-08T03:05:35.541Z,30.73
2023-05-08T03:08:08.209Z,30.65
2023-05-08T03:10:35.667Z,30.64
2023-05-08T03:13:07.711Z,30.53
2023-05-08T03:16:07.579Z,30.89
2023-05-08T03:18:36.665Z,31.17
2023-05-08T03:21:04.075Z,30.92
2023-05-08T03:23:31.282Z,30.92
2023-05-08T03:25:58.991Z,31.03
2023-05-08T03:28:26.552Z,30.89
2023-05-08T03:30:55.338Z,30.93
2023-05-08T03:33:22.518Z,31.01
2023-05-08T03:35:49.730Z,30.99
2023-05-08T03:38:17.338Z,31.40
2023-05-08T03:40:44.621Z,31.09
2023-05-08T03:43:11.775Z,31.18
2023-05-08T03:45:40.842Z,31.36
2023-05-08T03:48:08.828Z,31.34
2023-05-08T03:50:37.115Z,31.15
2023-05-08T03:53:05.863Z,31.44
2023-05-08T03:55:33.966Z,31.10
2023-05-08T03:58:06.814Z,31.34
2023-05-08T04:01:02.109Z,31.59
2023-05-08T04:03:39.214Z,31.34
2023-05-08T04:06:16.235Z,31.42
2023-05-08T04:08:54.110Z,31.33
2023-05-08T04:11:40.462Z,31.38
2023-05-08T04:14:09.026Z,31.49
2023-05-08T04:16:38.898Z,31.39
2023-05-08T04:19:15.830Z,31.44
2023-05-08T04:21:43.531Z,31.36
2023-05-08T04:24:13.252Z,31.42
2023-05-08T04:26:40.941Z,31.39
2023-05-08T04:29:08.176Z,31.37
2023-05-08T04:31:35.902Z,31.43
2023-05-08T04:34:03.473Z,31.30
2023-05-08T04:36:34.130Z,31.31
2023-05-08T04:39:02.006Z,31.17
2023-05-08T04:41:29.278Z,31.08
2023-05-08T04:43:56.543Z,31.25
2023-05-08T04:46:24.817Z,31.17
2023-05-08T04:48:52.151Z,31.00
2023-05-08T04:51:19.278Z,30.98
2023-05-08T04:53:46.428Z,30.94
2023-05-08T04:56:13.716Z,30.93
2023-05-08T04:58:41.277Z,30.86
2023-05-08T05:01:08.534Z,30.75
2023-05-08T05:03:35.888Z,30.84
2023-05-08T05:06:02.961Z,30.97
2023-05-08T05:08:30.028Z,31.28
2023-05-08T05:10:57.490Z,31.21
2023-05-08T05:13:24.885Z,30.94
2023-05-08T05:15:54.528Z,30.92
2023-05-08T05:18:21.995Z,30.77
2023-05-08T05:20:49.779Z,30.82
2023-05-08T05:23:16.859Z,30.85
2023-05-08T05:25:44.443Z,30.88
2023-05-08T05:30:19.394Z,32.42
2023-05-08T05:32:47.221Z,30.92
2023-05-08T05:35:14.584Z,30.96
2023-05-08T05:37:41.773Z,30.83
2023-05-08T05:40:10.155Z,30.79
2023-05-08T05:42:37.793Z,30.78
2023-05-08T05:45:05.325Z,30.62
2023-05-08T05:47:32.592Z,30.53
2023-05-08T05:49:59.964Z,29.91
2023-05-08T05:52:27.191Z,30.50
2023-05-08T05:54:54.089Z,30.75
2023-05-08T05:57:21.056Z,30.62
2023-05-08T05:59:48.371Z,30.84
2023-05-08T06:02:18.211Z,30.83
2023-05-08T06:04:45.445Z,30.65
2023-05-08T06:07:12.481Z,30.80
2023-05-08T06:09:39.873Z,30.60
2023-05-08T06:12:07.736Z,30.83
2023-05-08T06:14:35.842Z,30.79
2023-05-08T06:17:03.062Z,30.63
2023-05-08T06:19:31.150Z,30.42
2023-05-08T06:21:58.112Z,30.29
2023-05-08T06:24:25.007Z,30.29
2023-05-08T06:26:52.215Z,30.34
2023-05-08T06:29:19.297Z,30.26
2023-05-08T06:31:47.012Z,30.43
2023-05-08T06:34:13.752Z,30.44
2023-05-08T06:36:41.013Z,30.38
2023-05-08T06:39:08.746Z,30.15
2023-05-08T06:41:36.441Z,30.19
2023-05-08T06:44:03.577Z,30.27
2023-05-08T06:46:30.996Z,30.12
2023-05-08T06:48:57.791Z,29.69
2023-05-08T06:51:24.707Z,29.82
2023-05-08T06:53:51.991Z,29.82
2023-05-08T06:56:18.892Z,29.90
2023-05-08T06:58:53.704Z,29.50
2023-05-08T07:01:28.168Z,29.16
2023-05-08T07:03:55.195Z,29.16
2023-05-08T07:06:22.406Z,29.25
2023-05-08T07:08:49.422Z,29.23
2023-05-08T07:11:16.391Z,29.11
2023-05-08T07:13:45.580Z,29.02
2023-05-08T07:16:12.662Z,29.00
2023-05-08T07:18:39.881Z,28.74
2023-05-08T07:21:07.401Z,28.76
2023-05-08T07:23:34.561Z,28.53
2023-05-08T07:26:01.787Z,28.45
2023-05-08T07:28:28.817Z,28.40
2023-05-08T07:30:56.805Z,28.52
2023-05-08T07:33:24.017Z,28.47
2023-05-08T07:35:51.067Z,28.56
2023-05-08T07:38:18.824Z,28.43
2023-05-08T07:40:45.833Z,28.32
2023-05-08T07:43:14.513Z,28.23
2023-05-08T07:45:41.770Z,27.98
2023-05-08T07:48:08.650Z,28.07
2023-05-08T07:50:36.222Z,28.13
2023-05-08T07:53:03.537Z,28.12
2023-05-08T07:55:30.526Z,27.71
2023-05-08T07:57:58.472Z,27.78
2023-05-08T08:00:27.057Z,27.58
2023-05-08T08:02:54.203Z,27.57
2023-05-08T08:05:21.685Z,27.41
2023-05-08T08:07:48.617Z,27.55
2023-05-08T08:10:15.461Z,27.03
2023-05-08T08:12:42.888Z,27.25
2023-05-08T08:15:10.718Z,27.23
2023-05-08T08:17:38.399Z,27.33
2023-05-08T08:20:06.196Z,26.70
2023-05-08T08:22:33.301Z,26.89
2023-05-08T08:25:00.176Z,26.76
2023-05-08T08:27:27.293Z,26.67
2023-05-08T08:30:01.507Z,27.28
2023-05-08T08:32:40.864Z,27.18
2023-05-08T08:35:08.723Z,27.96
2023-05-08T08:37:35.694Z,27.54
2023-05-08T08:40:03.136Z,26.93
2023-05-08T08:42:31.203Z,27.81
2023-05-08T08:44:58.048Z,27.64
2023-05-08T08:47:28.244Z,27.15
2023-05-08T08:49:55.683Z,28.47
2023-05-08T08:52:30.208Z,28.21
2023-05-08T08:54:58.181Z,28.25
2023-05-08T08:57:26.252Z,27.91
2023-05-08T08:59:52.994Z,28.50
2023-05-08T09:02:19.820Z,27.90
2023-05-08T09:04:49.118Z,26.92
2023-05-08T09:07:17.396Z,26.72
2023-05-08T09:09:44.928Z,25.29
2023-05-08T09:12:15.082Z,24.72
2023-05-08T09:14:42.130Z,24.88
2023-05-08T09:17:09.440Z,24.52
2023-05-08T09:19:36.364Z,24.75
2023-05-08T09:22:03.826Z,24.75
2023-05-08T09:25:06.648Z,24.47
2023-05-08T09:27:36.803Z,24.31
2023-05-08T09:30:08.811Z,24.26
2023-05-08T09:32:39.150Z,24.60
2023-05-08T09:35:07.289Z,24.60
2023-05-08T09:37:37.400Z,24.36
2023-05-08T09:40:21.896Z,24.47
2023-05-08T09:42:49.630Z,23.85
2023-05-08T09:45:30.555Z,23.97
2023-05-08T09:47:57.822Z,23.74
2023-05-08T09:50:25.221Z,23.74
2023-05-08T09:52:52.307Z,23.92
2023-05-08T09:55:19.582Z,23.77
2023-05-08T09:57:56.777Z,23.62
2023-05-08T10:00:27.379Z,23.52
2023-05-08T10:03:01.732Z,23.86
2023-05-08T10:05:30.678Z,23.61
2023-05-08T10:07:58.323Z,23.52
2023-05-08T10:10:30.149Z,23.69
2023-05-08T10:12:57.991Z,23.48
2023-05-08T10:15:28.074Z,23.59
2023-05-08T10:18:01.348Z,23.59
2023-05-08T10:20:29.717Z,23.62
2023-05-08T10:22:56.898Z,23.71
2023-05-08T10:25:24.461Z,23.53
2023-05-08T10:28:28.474Z,23.33
2023-05-08T10:30:56.539Z,23.13
2023-05-08T10:33:24.956Z,23.33
2023-05-08T10:35:52.245Z,23.45
2023-05-08T10:38:19.799Z,23.14
2023-05-08T10:40:46.719Z,22.88
2023-05-08T10:43:13.489Z,23.18
2023-05-08T10:45:40.435Z,23.24
2023-05-08T10:48:19.630Z,23.21
2023-05-08T10:50:58.784Z,23.02
2023-05-08T10:53:51.912Z,22.98
2023-05-08T10:56:25.786Z,22.82
2023-05-08T10:58:57.117Z,22.81
2023-05-08T11:01:24.488Z,23.07
2023-05-08T11:03:51.655Z,22.94
2023-05-08T11:06:41.954Z,22.73
2023-05-08T11:09:08.882Z,22.55
2023-05-08T11:11:38.749Z,22.82
2023-05-08T11:14:08.659Z,22.80
2023-05-08T11:16:53.817Z,22.60
2023-05-08T11:19:22.158Z,22.77
2023-05-08T11:22:21.797Z,22.68
2023-05-08T11:24:51.873Z,22.97
2023-05-08T11:27:34.078Z,22.96
2023-05-08T11:30:36.947Z,23.01
2023-05-08T11:33:04.450Z,22.99
2023-05-08T11:35:45.115Z,22.73
2023-05-08T11:38:27.376Z,22.78
2023-05-08T11:41:00.194Z,22.77
2023-05-08T11:43:33.309Z,22.73
2023-05-08T11:46:04.260Z,22.76
2023-05-08T11:48:32.092Z,22.73
2023-05-08T11:50:59.678Z,22.66
2023-05-08T11:53:27.311Z,22.78
2023-05-08T11:55:54.297Z,22.54
2023-05-08T11:58:21.194Z,22.81
2023-05-08T12:00:48.489Z,22.57
2023-05-08T12:03:19.450Z,22.78
2023-05-08T12:05:47.305Z,22.88
2023-05-08T12:08:14.472Z,22.78
2023-05-08T12:10:52.254Z,22.50
2023-05-08T12:13:24.158Z,22.34
2023-05-08T12:15:55.800Z,22.48
2023-05-08T12:18:23.629Z,22.47
2023-05-08T12:20:51.722Z,22.68
2023-05-08T12:23:18.719Z,23.65
2023-05-08T12:25:45.828Z,23.62
2023-05-08T12:28:12.944Z,24.07
2023-05-08T12:30:39.790Z,22.51
2023-05-08T12:33:06.665Z,22.39
2023-05-08T12:35:33.842Z,22.25
2023-05-08T12:38:04.118Z,22.43
2023-05-08T12:40:36.056Z,22.34
2023-05-08T12:43:03.399Z,22.30
2023-05-08T12:45:33.271Z,22.24
2023-05-08T12:48:05.231Z,22.33
2023-05-08T12:50:40.801Z,22.17
2023-05-08T12:53:11.272Z,22.16
2023-05-08T12:55:40.254Z,22.30
2023-05-08T12:58:11.981Z,22.33
2023-05-08T13:00:46.144Z,22.34
2023-05-08T13:03:28.961Z,22.22
2023-05-08T13:05:57.302Z,23.55
2023-05-08T13:08:32.356Z,24.09
2023-05-08T13:11:00.233Z,22.98
2023-05-08T13:13:27.697Z,22.47
2023-05-08T13:15:55.461Z,23.99
2023-05-08T13:18:26.721Z,24.37
2023-05-08T13:20:56.559Z,24.60
2023-05-08T13:23:23.876Z,24.65
2023-05-08T13:25:50.811Z,23.27
2023-05-08T13:28:17.917Z,22.63
2023-05-08T13:30:44.740Z,22.55
2023-05-08T13:33:11.607Z,22.40
2023-05-08T13:35:38.822Z,22.04
2023-05-08T13:38:05.733Z,22.29
2023-05-08T13:40:32.792Z,22.28
2023-05-08T13:42:59.807Z,21.91
2023-05-08T13:45:26.806Z,21.87
2023-05-08T13:47:54.107Z,21.87
2023-05-08T13:50:21.318Z,22.06
2023-05-08T13:52:48.520Z,21.95
2023-05-08T13:55:15.565Z,21.97
2023-05-08T13:57:42.882Z,22.10
2023-05-08T14:00:10.856Z,22.15
2023-05-08T14:02:38.597Z,22.03
2023-05-08T14:05:08.425Z,22.01
2023-05-08T14:07:35.531Z,21.91
2023-05-08T14:10:03.189Z,21.66
2023-05-08T14:12:30.744Z,21.75
2023-05-08T14:14:59.671Z,21.62
2023-05-08T14:17:26.453Z,21.63
2023-05-08T14:19:53.362Z,21.60
2023-05-08T14:22:20.155Z,21.42
2023-05-08T14:24:47.180Z,21.62
2023-05-08T14:27:14.104Z,21.67
2023-05-08T14:29:41.053Z,21.50
2023-05-08T14:32:08.866Z,21.67
2023-05-08T14:34:35.909Z,21.77
2023-05-08T14:37:03.178Z,21.50
2023-05-08T14:39:30.224Z,21.52
2023-05-08T14:42:18.298Z,21.58
2023-05-08T14:44:43.793Z,21.65
2023-05-08T14:47:10.773Z,21.62
2023-05-08T14:49:38.743Z,21.61
2023-05-08T14:52:06.333Z,21.51
2023-05-08T14:54:33.731Z,21.53
2023-05-08T14:57:00.817Z,21.50
2023-05-08T14:59:28.016Z,21.73
2023-05-08T15:01:55.513Z,21.59
2023-05-08T15:04:23.022Z,21.59
2023-05-08T15:06:50.095Z,21.46
2023-05-08T15:09:17.190Z,21.63
2023-05-08T15:11:44.196Z,21.53
2023-05-08T15:14:11.114Z,21.59
2023-05-08T15:16:38.140Z,21.88
2023-05-08T15:19:05.060Z,21.99
2023-05-08T15:21:32.034Z,22.10
2023-05-08T15:23:59.331Z,22.32
2023-05-08T15:26:26.209Z,22.32
2023-05-08T15:28:53.011Z,22.24
2023-05-08T15:31:20.107Z,22.37
2023-05-08T15:33:47.681Z,22.24
2023-05-08T15:36:14.910Z,22.47
2023-05-08T15:38:41.925Z,22.37
2023-05-08T15:41:14.762Z,22.52
2023-05-08T15:43:42.577Z,22.63
2023-05-08T15:46:09.557Z,22.65
2023-05-08T15:48:37.205Z,23.35
2023-05-08T15:51:04.216Z,23.56
2023-05-08T15:53:32.485Z,22.21
2023-05-08T15:55:59.781Z,22.12
2023-05-08T15:58:27.128Z,22.15
2023-05-08T16:00:54.265Z,22.17
2023-05-08T16:03:21.235Z,22.12
2023-05-08T16:05:48.301Z,22.00
2023-05-08T16:08:15.302Z,22.15
2023-05-08T16:10:42.306Z,21.85
2023-05-08T16:13:10.146Z,22.06
2023-05-08T16:15:37.166Z,21.94
2023-05-08T16:18:04.341Z,22.01
2023-05-08T16:20:33.346Z,22.04
2023-05-08T16:23:01.337Z,22.12
2023-05-08T16:25:28.698Z,22.13
2023-05-08T16:27:55.703Z,22.25
2023-05-08T16:30:22.516Z,22.41
2023-05-08T16:32:49.450Z,22.47
2023-05-08T16:35:16.899Z,22.38
2023-05-08T16:37:44.271Z,22.56
2023-05-08T16:40:11.698Z,22.66
2023-05-08T16:42:38.606Z,22.62
2023-05-08T16:45:06.254Z,22.64
2023-05-08T16:47:33.924Z,22.53
2023-05-08T16:50:01.304Z,22.67
2023-05-08T16:52:28.467Z,22.69
2023-05-08T16:54:55.286Z,22.78
2023-05-08T16:57:22.396Z,22.89
2023-05-08T16:59:49.313Z,22.84
2023-05-08T17:02:18.066Z,22.91
2023-05-08T17:04:48.427Z,23.16
2023-05-08T17:07:15.520Z,23.05
2023-05-08T17:09:42.582Z,22.99
2023-05-08T17:12:09.630Z,23.20
2023-05-08T17:14:39.515Z,23.12
2023-05-08T17:17:06.446Z,23.23
2023-05-08T17:19:33.339Z,23.32
2023-05-08T17:22:00.480Z,23.29
2023-05-08T17:24:29.157Z,23.29
2023-05-08T17:26:56.193Z,23.38
2023-05-08T17:29:23.052Z,23.44
2023-05-08T17:31:50.062Z,23.49
2023-05-08T17:34:17.166Z,23.59
2023-05-08T17:36:44.260Z,23.81
2023-05-08T17:39:11.913Z,23.85
2023-05-08T17:41:38.681Z,23.72
2023-05-08T17:46:01.794Z,25.18
2023-05-08T17:53:40.186Z,25.52
2023-05-08T17:56:07.839Z,25.67
2023-05-08T17:58:34.860Z,25.69
2023-05-08T18:01:02.021Z,25.97
2023-05-08T18:03:29.273Z,25.94
2023-05-08T18:05:56.713Z,26.49
2023-05-08T18:08:23.799Z,26.16
2023-05-08T18:10:50.813Z,26.31
2023-05-08T18:13:17.895Z,26.25
2023-05-08T18:15:45.133Z,26.67
2023-05-08T18:18:12.344Z,26.33
2023-05-08T18:20:39.371Z,26.40
2023-05-08T18:23:06.707Z,26.59
2023-05-08T18:25:35.645Z,26.55
2023-05-08T18:28:02.706Z,26.89
2023-05-08T18:30:30.207Z,26.72
2023-05-08T18:32:57.753Z,27.02
2023-05-08T18:35:24.766Z,27.40
2023-05-08T18:37:51.920Z,27.22
2023-05-08T18:40:19.021Z,27.81
2023-05-08T18:42:46.377Z,28.16
2023-05-08T18:45:13.484Z,27.91
2023-05-08T18:47:40.774Z,27.71
2023-05-08T18:50:08.472Z,28.40
2023-05-08T18:52:35.706Z,29.56
2023-05-08T18:55:03.856Z,29.23
2023-05-08T18:57:31.195Z,30.13
2023-05-08T18:59:58.439Z,30.51
2023-05-08T19:02:28.100Z,30.71
2023-05-08T19:04:55.980Z,30.76
2023-05-08T19:07:23.894Z,30.78
2023-05-08T19:09:50.792Z,31.21
2023-05-08T19:12:17.833Z,30.04
2023-05-08T19:14:45.037Z,28.27
2023-05-08T19:17:12.168Z,28.71
2023-05-08T19:19:39.601Z,28.49
2023-05-08T19:22:06.788Z,28.38
2023-05-08T19:24:34.444Z,28.53
2023-05-08T19:27:01.719Z,28.71
2023-05-08T19:29:28.821Z,28.40
2023-05-08T19:31:56.801Z,28.36
2023-05-08T19:34:24.274Z,28.50
2023-05-08T19:36:51.588Z,28.79
2023-05-08T19:39:18.580Z,28.74
2023-05-08T19:41:45.555Z,28.51
2023-05-08T19:44:13.012Z,28.61
2023-05-08T19:46:40.089Z,28.86
2023-05-08T19:49:07.319Z,28.84
2023-05-08T19:51:34.989Z,28.77
2023-05-08T19:54:02.091Z,28.95
2023-05-08T19:56:29.594Z,29.28
2023-05-08T19:58:56.647Z,29.15
2023-05-08T20:01:23.669Z,29.34
2023-05-08T20:03:50.952Z,29.41
2023-05-08T20:06:18.201Z,29.57
2023-05-08T20:08:45.665Z,29.49
2023-05-08T20:11:12.700Z,29.87
2023-05-08T20:13:39.862Z,29.73
2023-05-08T20:16:07.205Z,29.86
2023-05-08T20:18:34.837Z,29.58
2023-05-08T20:21:02.451Z,29.56
2023-05-08T20:23:29.600Z,29.72
2023-05-08T20:25:56.545Z,29.73
2023-05-08T20:28:26.324Z,29.93
2023-05-08T20:30:53.457Z,29.92
2023-05-08T20:33:20.972Z,30.30
2023-05-08T20:35:48.148Z,30.18
2023-05-08T20:38:16.246Z,30.14
2023-05-08T20:40:43.169Z,30.41
2023-05-08T20:43:10.784Z,30.68
2023-05-08T20:45:38.471Z,30.56
2023-05-08T20:48:05.871Z,30.37
2023-05-08T20:50:32.985Z,30.64
2023-05-08T20:52:59.955Z,30.79
2023-05-08T20:55:27.126Z,30.65
2023-05-08T20:57:54.595Z,30.64
2023-05-08T21:00:21.677Z,30.14
2023-05-08T21:02:48.720Z,30.27
2023-05-08T21:05:16.112Z,30.79
2023-05-08T21:07:43.252Z,30.59
2023-05-08T21:10:10.604Z,30.81
2023-05-08T21:12:37.694Z,30.36
2023-05-08T21:15:06.132Z,30.77
2023-05-08T21:17:33.166Z,30.63
2023-05-08T21:20:00.273Z,30.42
2023-05-08T21:22:27.610Z,30.96
2023-05-08T21:24:54.628Z,30.75
2023-05-08T21:27:21.786Z,30.82
2023-05-08T21:29:48.958Z,31.02
2023-05-08T21:32:16.034Z,30.99
2023-05-08T21:34:43.239Z,30.77
2023-05-08T21:37:13.221Z,30.74
2023-05-08T21:39:40.903Z,30.96
2023-05-08T21:42:07.918Z,31.10
2023-05-08T21:44:34.906Z,31.44
2023-05-08T21:47:02.184Z,31.62
2023-05-08T21:49:29.197Z,31.47
2023-05-08T21:51:58.000Z,31.42
2023-05-08T21:54:25.094Z,31.81
2023-05-08T21:56:52.166Z,31.65
2023-05-08T21:59:19.580Z,31.77
2023-05-08T22:01:46.697Z,31.63
2023-05-08T22:04:14.214Z,31.73
2023-05-08T22:06:43.360Z,31.90
2023-05-08T22:09:10.385Z,31.87
2023-05-08T22:11:38.080Z,31.76
2023-05-08T22:14:05.072Z,32.02
2023-05-08T22:16:32.232Z,32.16
2023-05-08T22:18:59.350Z,31.89
2023-05-08T22:21:29.714Z,32.31
2023-05-08T22:23:57.421Z,32.07
2023-05-08T22:26:24.498Z,32.26
2023-05-08T22:28:52.518Z,32.35
2023-05-08T22:31:19.751Z,32.22
2023-05-08T22:33:46.873Z,32.59
2023-05-08T22:36:14.286Z,32.48
2023-05-08T22:38:41.304Z,32.46
2023-05-08T22:41:08.776Z,32.42
2023-05-08T22:43:35.995Z,32.55
2023-05-08T22:46:03.081Z,32.53
2023-05-08T22:48:30.454Z,32.63
2023-05-08T22:50:57.454Z,32.76
2023-05-08T22:53:24.422Z,32.94
2023-05-08T22:55:51.428Z,32.72
2023-05-08T22:58:18.500Z,32.62
2023-05-08T23:00:45.925Z,33.01
2023-05-08T23:03:13.288Z,32.79
2023-05-08T23:05:40.314Z,32.93
2023-05-08T23:08:07.395Z,32.93
2023-05-08T23:10:34.410Z,33.08
2023-05-08T23:13:01.572Z,33.12
2023-05-08T23:15:29.094Z,33.15
2023-05-08T23:17:56.287Z,33.13
2023-05-08T23:20:23.307Z,32.86
2023-05-08T23:22:50.224Z,33.25
2023-05-08T23:25:17.345Z,33.26
2023-05-08T23:27:44.346Z,33.19
2023-05-08T23:30:17.011Z,33.44
2023-05-08T23:32:44.446Z,33.43
2023-05-08T23:35:11.945Z,33.22
2023-05-08T23:37:39.536Z,33.43
2023-05-08T23:40:07.526Z,33.31
2023-05-08T23:42:34.532Z,33.55
2023-05-08T23:45:01.501Z,33.57
2023-05-08T23:47:28.533Z,33.74
2023-05-08T23:49:55.982Z,33.78
2023-05-08T23:52:23.345Z,33.70
2023-05-08T23:54:50.452Z,33.55
2023-05-08T23:57:17.579Z,33.63
2023-05-08T23:59:44.547Z,33.74
